sensor_id;sensor_type;location;lat;lon;timestamp;P1;durP1;ratioP1;P2;durP2;ratioP2
7181;SDS011;3632;42.724;23.298;2024-03-23T00:56:12;27.17;;;15.93;;
7181;SDS011;3632;42.724;23.298;2024-03-23T00:58:38;26.17;;;15.33;;
7181;SDS011;3632;42.724;23.298;2024-03-23T01:01:04;27.07;;;15.47;;
7181;SDS011;3632;42.724;23.298;2024-03-23T01:03:32;22.93;;;14.57;;
7181;SDS011;3632;42.724;23.298;2024-03-23T01:05:59;24.80;;;15.03;;
7181;SDS011;3632;42.724;23.298;2024-03-23T01:08:26;26.17;;;15.37;;
7181;SDS011;3632;42.724;23.298;2024-03-23T01:10:55;23.93;;;14.43;;
7181;SDS011;3632;42.724;23.298;2024-03-23T01:13:22;22.30;;;14.57;;
7181;SDS011;3632;42.724;23.298;2024-03-23T01:15:48;23.10;;;15.07;;
7181;SDS011;3632;42.724;23.298;2024-03-23T01:18:15;23.40;;;14.27;;
7181;SDS011;3632;42.724;23.298;2024-03-23T01:20:42;26.20;;;14.80;;
7181;SDS011;3632;42.724;23.298;2024-03-23T01:23:09;20.37;;;13.50;;
7181;SDS011;3632;42.724;23.298;2024-03-23T01:25:35;21.40;;;13.60;;
7181;SDS011;3632;42.724;23.298;2024-03-23T01:28:02;18.33;;;13.23;;
7181;SDS011;3632;42.724;23.298;2024-03-23T01:30:28;24.33;;;14.30;;
7181;SDS011;3632;42.724;23.298;2024-03-23T01:32:55;20.13;;;12.67;;
7181;SDS011;3632;42.724;23.298;2024-03-23T01:35:22;22.70;;;13.63;;
7181;SDS011;3632;42.724;23.298;2024-03-23T01:37:49;18.40;;;12.50;;
7181;SDS011;3632;42.724;23.298;2024-03-23T01:40:16;17.83;;;12.13;;
7181;SDS011;3632;42.724;23.298;2024-03-23T01:42:42;17.00;;;11.53;;
7181;SDS011;3632;42.724;23.298;2024-03-23T01:45:09;16.50;;;10.73;;
7181;SDS011;3632;42.724;23.298;2024-03-23T01:47:35;16.57;;;11.53;;
7181;SDS011;3632;42.724;23.298;2024-03-23T01:50:01;18.60;;;11.40;;
7181;SDS011;3632;42.724;23.298;2024-03-23T01:52:28;14.87;;;10.03;;
7181;SDS011;3632;42.724;23.298;2024-03-23T01:54:56;16.63;;;10.10;;
7181;SDS011;3632;42.724;23.298;2024-03-23T01:57:22;17.60;;;10.87;;
7181;SDS011;3632;42.724;23.298;2024-03-23T01:59:49;17.70;;;10.23;;
7181;SDS011;3632;42.724;23.298;2024-03-23T02:02:15;13.20;;;9.90;;
7181;SDS011;3632;42.724;23.298;2024-03-23T02:04:45;14.47;;;10.57;;
7181;SDS011;3632;42.724;23.298;2024-03-23T02:07:10;14.37;;;10.23;;
7181;SDS011;3632;42.724;23.298;2024-03-23T02:09:37;13.90;;;10.37;;
7181;SDS011;3632;42.724;23.298;2024-03-23T02:12:05;14.63;;;10.07;;
7181;SDS011;3632;42.724;23.298;2024-03-23T02:14:32;19.37;;;12.27;;
7181;SDS011;3632;42.724;23.298;2024-03-23T02:16:58;20.00;;;12.27;;
7181;SDS011;3632;42.724;23.298;2024-03-23T02:19:24;18.43;;;11.37;;
7181;SDS011;3632;42.724;23.298;2024-03-23T02:21:50;18.43;;;12.47;;
7181;SDS011;3632;42.724;23.298;2024-03-23T02:24:18;24.87;;;17.33;;
7181;SDS011;3632;42.724;23.298;2024-03-23T02:26:44;22.00;;;14.50;;
7181;SDS011;3632;42.724;23.298;2024-03-23T02:29:13;23.23;;;13.53;;
7181;SDS011;3632;42.724;23.298;2024-03-23T02:31:39;22.47;;;12.23;;
7181;SDS011;3632;42.724;23.298;2024-03-23T02:34:05;18.77;;;12.30;;
7181;SDS011;3632;42.724;23.298;2024-03-23T02:36:31;18.00;;;11.13;;
7181;SDS011;3632;42.724;23.298;2024-03-23T02:38:58;16.57;;;10.97;;
7181;SDS011;3632;42.724;23.298;2024-03-23T02:41:25;16.10;;;11.07;;
7181;SDS011;3632;42.724;23.298;2024-03-23T02:43:52;14.70;;;10.83;;
7181;SDS011;3632;42.724;23.298;2024-03-23T02:46:17;18.17;;;11.77;;
7181;SDS011;3632;42.724;23.298;2024-03-23T02:48:44;17.67;;;10.70;;
7181;SDS011;3632;42.724;23.298;2024-03-23T02:51:10;15.53;;;10.57;;
7181;SDS011;3632;42.724;23.298;2024-03-23T02:53:37;15.77;;;10.20;;
7181;SDS011;3632;42.724;23.298;2024-03-23T02:56:02;16.80;;;10.03;;
7181;SDS011;3632;42.724;23.298;2024-03-23T02:58:31;16.50;;;10.20;;
7181;SDS011;3632;42.724;23.298;2024-03-23T03:00:57;15.67;;;9.97;;
7181;SDS011;3632;42.724;23.298;2024-03-23T03:03:24;15.40;;;10.70;;
7181;SDS011;3632;42.724;23.298;2024-03-23T03:05:54;18.67;;;11.27;;
7181;SDS011;3632;42.724;23.298;2024-03-23T03:08:21;16.23;;;10.70;;
7181;SDS011;3632;42.724;23.298;2024-03-23T03:10:47;22.00;;;11.27;;
7181;SDS011;3632;42.724;23.298;2024-03-23T03:13:14;16.63;;;11.23;;
7181;SDS011;3632;42.724;23.298;2024-03-23T03:15:42;16.93;;;11.33;;
7181;SDS011;3632;42.724;23.298;2024-03-23T03:18:09;15.53;;;9.57;;
7181;SDS011;3632;42.724;23.298;2024-03-23T03:20:37;15.27;;;10.27;;
7181;SDS011;3632;42.724;23.298;2024-03-23T03:23:04;14.13;;;10.17;;
7181;SDS011;3632;42.724;23.298;2024-03-23T03:25:31;16.60;;;10.70;;
7181;SDS011;3632;42.724;23.298;2024-03-23T03:27:57;17.43;;;10.73;;
7181;SDS011;3632;42.724;23.298;2024-03-23T03:30:24;16.07;;;10.80;;
7181;SDS011;3632;42.724;23.298;2024-03-23T03:32:51;20.03;;;10.30;;
7181;SDS011;3632;42.724;23.298;2024-03-23T03:35:19;15.63;;;9.93;;
7181;SDS011;3632;42.724;23.298;2024-03-23T03:37:45;22.07;;;10.67;;
7181;SDS011;3632;42.724;23.298;2024-03-23T03:40:12;15.63;;;11.37;;
7181;SDS011;3632;42.724;23.298;2024-03-23T03:42:40;19.77;;;11.80;;
7181;SDS011;3632;42.724;23.298;2024-03-23T03:45:06;18.17;;;12.73;;
7181;SDS011;3632;42.724;23.298;2024-03-23T03:47:32;24.33;;;15.37;;
7181;SDS011;3632;42.724;23.298;2024-03-23T03:50:01;24.57;;;16.13;;
7181;SDS011;3632;42.724;23.298;2024-03-23T03:52:26;34.07;;;18.73;;
7181;SDS011;3632;42.724;23.298;2024-03-23T03:54:55;69.33;;;37.50;;
7181;SDS011;3632;42.724;23.298;2024-03-23T03:57:27;63.50;;;38.40;;
7181;SDS011;3632;42.724;23.298;2024-03-23T03:59:54;58.03;;;32.93;;
7181;SDS011;3632;42.724;23.298;2024-03-23T04:02:20;44.10;;;27.87;;
7181;SDS011;3632;42.724;23.298;2024-03-23T04:04:47;39.80;;;24.30;;
7181;SDS011;3632;42.724;23.298;2024-03-23T04:07:14;43.30;;;27.47;;
7181;SDS011;3632;42.724;23.298;2024-03-23T04:09:42;54.57;;;31.63;;
7181;SDS011;3632;42.724;23.298;2024-03-23T04:12:08;40.63;;;24.80;;
7181;SDS011;3632;42.724;23.298;2024-03-23T04:14:35;44.37;;;28.57;;
7181;SDS011;3632;42.724;23.298;2024-03-23T04:17:01;51.67;;;33.00;;
7181;SDS011;3632;42.724;23.298;2024-03-23T04:19:28;45.17;;;27.00;;
7181;SDS011;3632;42.724;23.298;2024-03-23T04:21:54;38.20;;;24.10;;
7181;SDS011;3632;42.724;23.298;2024-03-23T04:24:22;37.20;;;23.97;;
7181;SDS011;3632;42.724;23.298;2024-03-23T04:26:48;29.40;;;21.20;;
7181;SDS011;3632;42.724;23.298;2024-03-23T04:29:15;28.63;;;18.90;;
7181;SDS011;3632;42.724;23.298;2024-03-23T04:31:40;26.60;;;16.07;;
7181;SDS011;3632;42.724;23.298;2024-03-23T04:34:07;19.10;;;13.30;;
7181;SDS011;3632;42.724;23.298;2024-03-23T04:36:33;17.93;;;12.57;;
7181;SDS011;3632;42.724;23.298;2024-03-23T04:39:00;19.63;;;13.13;;
7181;SDS011;3632;42.724;23.298;2024-03-23T04:41:29;18.93;;;13.00;;
7181;SDS011;3632;42.724;23.298;2024-03-23T04:43:56;23.23;;;13.83;;
7181;SDS011;3632;42.724;23.298;2024-03-23T04:46:23;28.17;;;17.00;;
7181;SDS011;3632;42.724;23.298;2024-03-23T04:48:48;28.30;;;16.10;;
7181;SDS011;3632;42.724;23.298;2024-03-23T04:51:20;23.37;;;15.70;;
7181;SDS011;3632;42.724;23.298;2024-03-23T04:53:47;24.13;;;16.27;;
7181;SDS011;3632;42.724;23.298;2024-03-23T04:56:14;28.40;;;15.77;;
7181;SDS011;3632;42.724;23.298;2024-03-23T04:58:42;36.33;;;22.40;;
7181;SDS011;3632;42.724;23.298;2024-03-23T05:01:08;32.27;;;19.20;;
7181;SDS011;3632;42.724;23.298;2024-03-23T05:03:35;29.53;;;16.53;;
7181;SDS011;3632;42.724;23.298;2024-03-23T05:06:00;23.93;;;15.40;;
7181;SDS011;3632;42.724;23.298;2024-03-23T05:08:27;26.10;;;15.60;;
7181;SDS011;3632;42.724;23.298;2024-03-23T05:10:53;22.60;;;14.17;;
7181;SDS011;3632;42.724;23.298;2024-03-23T05:13:20;26.60;;;14.27;;
7181;SDS011;3632;42.724;23.298;2024-03-23T05:15:51;23.67;;;13.67;;
7181;SDS011;3632;42.724;23.298;2024-03-23T05:18:19;25.13;;;13.50;;
7181;SDS011;3632;42.724;23.298;2024-03-23T05:20:44;26.90;;;14.40;;
7181;SDS011;3632;42.724;23.298;2024-03-23T05:23:11;24.37;;;14.07;;
7181;SDS011;3632;42.724;23.298;2024-03-23T05:25:37;24.53;;;13.47;;
7181;SDS011;3632;42.724;23.298;2024-03-23T05:28:04;22.20;;;12.03;;
7181;SDS011;3632;42.724;23.298;2024-03-23T05:30:30;22.47;;;12.13;;
7181;SDS011;3632;42.724;23.298;2024-03-23T05:32:58;18.90;;;11.73;;
7181;SDS011;3632;42.724;23.298;2024-03-23T05:35:24;24.87;;;12.63;;
7181;SDS011;3632;42.724;23.298;2024-03-23T05:37:51;20.60;;;12.30;;
7181;SDS011;3632;42.724;23.298;2024-03-23T05:40:16;24.47;;;12.97;;
7181;SDS011;3632;42.724;23.298;2024-03-23T05:42:43;23.47;;;12.37;;
7181;SDS011;3632;42.724;23.298;2024-03-23T05:45:09;18.60;;;9.93;;
7181;SDS011;3632;42.724;23.298;2024-03-23T05:47:36;16.30;;;9.37;;
7181;SDS011;3632;42.724;23.298;2024-03-23T05:50:04;15.40;;;10.63;;
7181;SDS011;3632;42.724;23.298;2024-03-23T05:52:31;16.23;;;9.57;;
7181;SDS011;3632;42.724;23.298;2024-03-23T05:54:57;11.77;;;8.90;;
7181;SDS011;3632;42.724;23.298;2024-03-23T05:57:24;13.90;;;8.40;;
7181;SDS011;3632;42.724;23.298;2024-03-23T05:59:51;13.13;;;9.23;;
7181;SDS011;3632;42.724;23.298;2024-03-23T06:02:17;16.27;;;9.23;;
7181;SDS011;3632;42.724;23.298;2024-03-23T06:04:45;13.90;;;9.30;;
7181;SDS011;3632;42.724;23.298;2024-03-23T06:07:13;11.73;;;8.03;;
7181;SDS011;3632;42.724;23.298;2024-03-23T06:09:39;13.20;;;8.63;;
7181;SDS011;3632;42.724;23.298;2024-03-23T06:12:06;14.97;;;9.60;;
7181;SDS011;3632;42.724;23.298;2024-03-23T06:14:32;15.50;;;10.20;;
7181;SDS011;3632;42.724;23.298;2024-03-23T06:16:59;13.40;;;9.63;;
7181;SDS011;3632;42.724;23.298;2024-03-23T06:19:25;13.40;;;9.97;;
7181;SDS011;3632;42.724;23.298;2024-03-23T06:21:53;16.10;;;10.20;;
7181;SDS011;3632;42.724;23.298;2024-03-23T06:24:20;20.87;;;11.33;;
7181;SDS011;3632;42.724;23.298;2024-03-23T06:26:47;17.93;;;11.53;;
7181;SDS011;3632;42.724;23.298;2024-03-23T06:29:13;15.73;;;10.50;;
7181;SDS011;3632;42.724;23.298;2024-03-23T06:31:39;15.53;;;10.53;;
7181;SDS011;3632;42.724;23.298;2024-03-23T06:34:05;17.77;;;10.93;;
7181;SDS011;3632;42.724;23.298;2024-03-23T06:36:32;15.70;;;10.83;;
7181;SDS011;3632;42.724;23.298;2024-03-23T06:38:58;13.47;;;10.90;;
7181;SDS011;3632;42.724;23.298;2024-03-23T06:41:26;15.30;;;10.43;;
7181;SDS011;3632;42.724;23.298;2024-03-23T06:43:52;15.30;;;10.80;;
7181;SDS011;3632;42.724;23.298;2024-03-23T06:46:18;17.10;;;10.37;;
7181;SDS011;3632;42.724;23.298;2024-03-23T06:48:44;16.33;;;11.57;;
7181;SDS011;3632;42.724;23.298;2024-03-23T06:51:11;14.47;;;11.20;;
7181;SDS011;3632;42.724;23.298;2024-03-23T06:53:37;19.63;;;11.60;;
7181;SDS011;3632;42.724;23.298;2024-03-23T06:56:04;14.23;;;10.40;;
7181;SDS011;3632;42.724;23.298;2024-03-23T06:58:32;16.97;;;10.70;;
7181;SDS011;3632;42.724;23.298;2024-03-23T07:00:59;15.13;;;10.53;;
7181;SDS011;3632;42.724;23.298;2024-03-23T07:03:25;15.27;;;10.37;;
7181;SDS011;3632;42.724;23.298;2024-03-23T07:05:52;16.37;;;11.13;;
7181;SDS011;3632;42.724;23.298;2024-03-23T07:08:18;14.77;;;10.80;;
7181;SDS011;3632;42.724;23.298;2024-03-23T07:10:47;33.30;;;10.57;;
7181;SDS011;3632;42.724;23.298;2024-03-23T07:13:13;16.37;;;9.43;;
7181;SDS011;3632;42.724;23.298;2024-03-23T07:15:41;15.63;;;10.10;;
7181;SDS011;3632;42.724;23.298;2024-03-23T07:18:07;16.00;;;10.87;;
7181;SDS011;3632;42.724;23.298;2024-03-23T07:20:34;16.60;;;10.33;;
7181;SDS011;3632;42.724;23.298;2024-03-23T07:23:00;13.73;;;9.97;;
7181;SDS011;3632;42.724;23.298;2024-03-23T07:25:27;15.27;;;10.17;;
7181;SDS011;3632;42.724;23.298;2024-03-23T07:27:54;19.20;;;9.60;;
7181;SDS011;3632;42.724;23.298;2024-03-23T07:30:21;19.40;;;10.97;;
7181;SDS011;3632;42.724;23.298;2024-03-23T07:32:48;18.53;;;10.67;;
7181;SDS011;3632;42.724;23.298;2024-03-23T07:35:14;17.27;;;9.77;;
7181;SDS011;3632;42.724;23.298;2024-03-23T07:37:40;19.17;;;10.67;;
7181;SDS011;3632;42.724;23.298;2024-03-23T07:40:08;14.93;;;10.37;;
7181;SDS011;3632;42.724;23.298;2024-03-23T07:42:36;18.93;;;10.17;;
7181;SDS011;3632;42.724;23.298;2024-03-23T07:45:02;15.63;;;9.90;;
7181;SDS011;3632;42.724;23.298;2024-03-23T07:47:32;19.93;;;12.10;;
7181;SDS011;3632;42.724;23.298;2024-03-23T07:49:59;22.43;;;11.57;;
7181;SDS011;3632;42.724;23.298;2024-03-23T07:52:27;18.60;;;11.17;;
7181;SDS011;3632;42.724;23.298;2024-03-23T07:54:53;15.70;;;10.37;;
7181;SDS011;3632;42.724;23.298;2024-03-23T07:57:20;14.87;;;10.13;;
7181;SDS011;3632;42.724;23.298;2024-03-23T07:59:46;15.97;;;10.23;;
7181;SDS011;3632;42.724;23.298;2024-03-23T08:02:13;13.60;;;10.10;;
7181;SDS011;3632;42.724;23.298;2024-03-23T08:04:38;11.43;;;9.10;;
7181;SDS011;3632;42.724;23.298;2024-03-23T08:07:07;16.70;;;9.70;;
7181;SDS011;3632;42.724;23.298;2024-03-23T08:09:32;16.07;;;10.10;;
7181;SDS011;3632;42.724;23.298;2024-03-23T08:11:59;17.13;;;10.17;;
7181;SDS011;3632;42.724;23.298;2024-03-23T08:14:25;16.03;;;9.83;;
7181;SDS011;3632;42.724;23.298;2024-03-23T08:16:52;15.37;;;10.00;;
7181;SDS011;3632;42.724;23.298;2024-03-23T08:19:20;14.27;;;9.70;;
7181;SDS011;3632;42.724;23.298;2024-03-23T08:21:46;18.20;;;9.50;;
7181;SDS011;3632;42.724;23.298;2024-03-23T08:24:15;16.70;;;9.90;;
7181;SDS011;3632;42.724;23.298;2024-03-23T08:26:41;16.03;;;10.03;;
7181;SDS011;3632;42.724;23.298;2024-03-23T08:29:07;15.33;;;10.63;;
7181;SDS011;3632;42.724;23.298;2024-03-23T08:31:33;15.90;;;10.40;;
7181;SDS011;3632;42.724;23.298;2024-03-23T08:34:00;14.93;;;9.07;;
7181;SDS011;3632;42.724;23.298;2024-03-23T08:36:26;13.33;;;9.43;;
7181;SDS011;3632;42.724;23.298;2024-03-23T08:38:53;17.10;;;10.47;;
7181;SDS011;3632;42.724;23.298;2024-03-23T08:41:21;16.50;;;10.40;;
7181;SDS011;3632;42.724;23.298;2024-03-23T08:43:48;18.93;;;10.60;;
7181;SDS011;3632;42.724;23.298;2024-03-23T08:46:15;18.10;;;11.23;;
7181;SDS011;3632;42.724;23.298;2024-03-23T08:48:42;14.37;;;10.43;;
7181;SDS011;3632;42.724;23.298;2024-03-23T08:51:10;16.30;;;11.40;;
7181;SDS011;3632;42.724;23.298;2024-03-23T08:53:39;15.53;;;10.77;;
7181;SDS011;3632;42.724;23.298;2024-03-23T08:56:06;15.93;;;10.37;;
7181;SDS011;3632;42.724;23.298;2024-03-23T08:58:35;13.50;;;9.97;;
7181;SDS011;3632;42.724;23.298;2024-03-23T09:01:04;14.63;;;10.40;;
7181;SDS011;3632;42.724;23.298;2024-03-23T09:03:33;13.97;;;10.13;;
7181;SDS011;3632;42.724;23.298;2024-03-23T09:06:00;13.37;;;10.33;;
7181;SDS011;3632;42.724;23.298;2024-03-23T09:08:27;12.70;;;9.67;;
7181;SDS011;3632;42.724;23.298;2024-03-23T09:10:53;14.03;;;9.57;;
7181;SDS011;3632;42.724;23.298;2024-03-23T09:13:20;13.90;;;9.47;;
7181;SDS011;3632;42.724;23.298;2024-03-23T09:15:48;12.90;;;9.13;;
7181;SDS011;3632;42.724;23.298;2024-03-23T09:18:16;14.00;;;10.20;;
7181;SDS011;3632;42.724;23.298;2024-03-23T09:20:42;17.43;;;9.83;;
7181;SDS011;3632;42.724;23.298;2024-03-23T09:23:09;13.93;;;9.77;;
7181;SDS011;3632;42.724;23.298;2024-03-23T09:25:36;16.20;;;10.00;;
7181;SDS011;3632;42.724;23.298;2024-03-23T09:28:03;12.47;;;10.13;;
7181;SDS011;3632;42.724;23.298;2024-03-23T09:30:30;16.20;;;10.03;;
7181;SDS011;3632;42.724;23.298;2024-03-23T09:33:00;15.43;;;11.27;;
7181;SDS011;3632;42.724;23.298;2024-03-23T09:35:26;15.10;;;10.13;;
7181;SDS011;3632;42.724;23.298;2024-03-23T09:37:54;16.17;;;10.23;;
7181;SDS011;3632;42.724;23.298;2024-03-23T09:40:20;17.00;;;10.27;;
7181;SDS011;3632;42.724;23.298;2024-03-23T09:42:49;16.10;;;10.67;;
7181;SDS011;3632;42.724;23.298;2024-03-23T09:45:18;16.23;;;11.17;;
7181;SDS011;3632;42.724;23.298;2024-03-23T09:47:47;13.33;;;10.33;;
7181;SDS011;3632;42.724;23.298;2024-03-23T09:50:16;16.17;;;11.53;;
7181;SDS011;3632;42.724;23.298;2024-03-23T09:52:43;16.60;;;10.87;;
7181;SDS011;3632;42.724;23.298;2024-03-23T09:55:10;17.47;;;9.90;;
7181;SDS011;3632;42.724;23.298;2024-03-23T09:57:39;14.90;;;11.23;;
7181;SDS011;3632;42.724;23.298;2024-03-23T10:00:05;16.57;;;10.33;;
7181;SDS011;3632;42.724;23.298;2024-03-23T10:02:33;15.63;;;10.90;;
7181;SDS011;3632;42.724;23.298;2024-03-23T10:05:00;17.13;;;10.40;;
7181;SDS011;3632;42.724;23.298;2024-03-23T10:07:28;16.10;;;11.93;;
7181;SDS011;3632;42.724;23.298;2024-03-23T10:09:54;15.33;;;10.07;;
7181;SDS011;3632;42.724;23.298;2024-03-23T10:12:22;13.20;;;9.47;;
7181;SDS011;3632;42.724;23.298;2024-03-23T10:14:49;16.83;;;10.13;;
7181;SDS011;3632;42.724;23.298;2024-03-23T10:17:17;12.20;;;8.57;;
7181;SDS011;3632;42.724;23.298;2024-03-23T10:19:44;13.70;;;9.87;;
7181;SDS011;3632;42.724;23.298;2024-03-23T10:22:12;12.60;;;8.60;;
7181;SDS011;3632;42.724;23.298;2024-03-23T10:24:40;13.27;;;9.73;;
7181;SDS011;3632;42.724;23.298;2024-03-23T10:27:07;14.00;;;8.27;;
7181;SDS011;3632;42.724;23.298;2024-03-23T10:29:33;13.30;;;8.63;;
7181;SDS011;3632;42.724;23.298;2024-03-23T10:32:09;10.13;;;7.50;;
7181;SDS011;3632;42.724;23.298;2024-03-23T10:34:36;9.43;;;7.47;;
7181;SDS011;3632;42.724;23.298;2024-03-23T10:37:04;15.33;;;7.93;;
7181;SDS011;3632;42.724;23.298;2024-03-23T10:39:33;11.27;;;7.37;;
7181;SDS011;3632;42.724;23.298;2024-03-23T10:42:06;11.93;;;7.07;;
7181;SDS011;3632;42.724;23.298;2024-03-23T10:44:32;11.13;;;7.20;;
7181;SDS011;3632;42.724;23.298;2024-03-23T10:47:00;15.83;;;7.40;;
7181;SDS011;3632;42.724;23.298;2024-03-23T10:49:27;12.73;;;9.40;;
7181;SDS011;3632;42.724;23.298;2024-03-23T10:51:56;10.47;;;7.03;;
7181;SDS011;3632;42.724;23.298;2024-03-23T10:54:24;13.67;;;9.87;;
7181;SDS011;3632;42.724;23.298;2024-03-23T10:56:52;12.13;;;8.27;;
7181;SDS011;3632;42.724;23.298;2024-03-23T10:59:26;17.93;;;8.20;;
7181;SDS011;3632;42.724;23.298;2024-03-23T11:01:55;8.97;;;6.67;;
7181;SDS011;3632;42.724;23.298;2024-03-23T11:04:31;10.27;;;6.77;;
7181;SDS011;3632;42.724;23.298;2024-03-23T11:06:59;13.17;;;6.63;;
7181;SDS011;3632;42.724;23.298;2024-03-23T11:09:38;15.57;;;7.93;;
7181;SDS011;3632;42.724;23.298;2024-03-23T11:12:14;10.03;;;5.83;;
7181;SDS011;3632;42.724;23.298;2024-03-23T11:14:52;10.97;;;6.80;;
7181;SDS011;3632;42.724;23.298;2024-03-23T11:17:20;8.40;;;6.10;;
7181;SDS011;3632;42.724;23.298;2024-03-23T11:19:52;12.23;;;6.67;;
7181;SDS011;3632;42.724;23.298;2024-03-23T11:22:40;8.90;;;6.57;;
7181;SDS011;3632;42.724;23.298;2024-03-23T11:25:14;12.67;;;6.53;;
7181;SDS011;3632;42.724;23.298;2024-03-23T11:27:42;11.83;;;6.20;;
7181;SDS011;3632;42.724;23.298;2024-03-23T11:30:11;15.67;;;7.87;;
7181;SDS011;3632;42.724;23.298;2024-03-23T11:32:39;11.63;;;8.97;;
7181;SDS011;3632;42.724;23.298;2024-03-23T11:35:05;8.50;;;5.83;;
7181;SDS011;3632;42.724;23.298;2024-03-23T11:37:35;8.73;;;5.57;;
7181;SDS011;3632;42.724;23.298;2024-03-23T11:40:06;8.67;;;5.80;;
7181;SDS011;3632;42.724;23.298;2024-03-23T11:42:43;8.37;;;5.67;;
7181;SDS011;3632;42.724;23.298;2024-03-23T11:45:09;10.47;;;5.67;;
7181;SDS011;3632;42.724;23.298;2024-03-23T11:47:39;8.87;;;5.57;;
7181;SDS011;3632;42.724;23.298;2024-03-23T11:50:05;7.80;;;5.30;;
7181;SDS011;3632;42.724;23.298;2024-03-23T11:52:32;11.47;;;5.13;;
7181;SDS011;3632;42.724;23.298;2024-03-23T11:55:04;9.83;;;4.67;;
7181;SDS011;3632;42.724;23.298;2024-03-23T11:57:33;9.93;;;5.53;;
7181;SDS011;3632;42.724;23.298;2024-03-23T11:59:59;9.90;;;5.20;;
7181;SDS011;3632;42.724;23.298;2024-03-23T12:02:27;7.80;;;4.93;;
7181;SDS011;3632;42.724;23.298;2024-03-23T12:04:53;6.87;;;4.30;;
7181;SDS011;3632;42.724;23.298;2024-03-23T12:07:20;8.37;;;4.60;;
7181;SDS011;3632;42.724;23.298;2024-03-23T12:09:47;7.33;;;4.60;;
7181;SDS011;3632;42.724;23.298;2024-03-23T12:12:28;8.23;;;4.10;;
7181;SDS011;3632;42.724;23.298;2024-03-23T12:15:01;9.97;;;5.10;;
7181;SDS011;3632;42.724;23.298;2024-03-23T12:17:30;9.80;;;5.00;;
7181;SDS011;3632;42.724;23.298;2024-03-23T12:19:55;7.57;;;4.57;;
7181;SDS011;3632;42.724;23.298;2024-03-23T12:22:22;8.07;;;4.90;;
7181;SDS011;3632;42.724;23.298;2024-03-23T12:24:49;8.30;;;5.43;;
7181;SDS011;3632;42.724;23.298;2024-03-23T12:27:16;5.73;;;3.80;;
7181;SDS011;3632;42.724;23.298;2024-03-23T12:29:43;7.77;;;4.53;;
7181;SDS011;3632;42.724;23.298;2024-03-23T12:32:11;6.27;;;4.43;;
7181;SDS011;3632;42.724;23.298;2024-03-23T12:34:40;7.87;;;5.10;;
7181;SDS011;3632;42.724;23.298;2024-03-23T12:37:06;6.63;;;4.20;;
7181;SDS011;3632;42.724;23.298;2024-03-23T12:39:34;8.57;;;4.20;;
7181;SDS011;3632;42.724;23.298;2024-03-23T12:42:00;7.30;;;4.50;;
7181;SDS011;3632;42.724;23.298;2024-03-23T12:44:27;6.73;;;3.90;;
7181;SDS011;3632;42.724;23.298;2024-03-23T12:46:53;7.90;;;3.63;;
7181;SDS011;3632;42.724;23.298;2024-03-23T12:49:20;7.60;;;4.53;;
7181;SDS011;3632;42.724;23.298;2024-03-23T12:51:48;4.13;;;2.90;;
7181;SDS011;3632;42.724;23.298;2024-03-23T12:54:20;3.37;;;2.60;;
7181;SDS011;3632;42.724;23.298;2024-03-23T12:56:46;2.50;;;2.10;;
7181;SDS011;3632;42.724;23.298;2024-03-23T12:59:13;3.10;;;2.20;;
7181;SDS011;3632;42.724;23.298;2024-03-23T13:01:39;2.57;;;2.37;;
7181;SDS011;3632;42.724;23.298;2024-03-23T13:04:05;4.13;;;2.40;;
7181;SDS011;3632;42.724;23.298;2024-03-23T13:06:31;3.57;;;2.43;;
7181;SDS011;3632;42.724;23.298;2024-03-23T13:09:00;5.33;;;2.13;;
7181;SDS011;3632;42.724;23.298;2024-03-23T13:11:26;2.60;;;2.40;;
7181;SDS011;3632;42.724;23.298;2024-03-23T13:13:53;3.57;;;2.50;;
7181;SDS011;3632;42.724;23.298;2024-03-23T13:16:19;2.53;;;1.83;;
7181;SDS011;3632;42.724;23.298;2024-03-23T13:18:45;3.17;;;2.00;;
7181;SDS011;3632;42.724;23.298;2024-03-23T13:21:11;2.10;;;1.70;;
7181;SDS011;3632;42.724;23.298;2024-03-23T13:23:38;2.30;;;2.10;;
7181;SDS011;3632;42.724;23.298;2024-03-23T13:26:09;2.60;;;2.07;;
7181;SDS011;3632;42.724;23.298;2024-03-23T13:28:36;5.17;;;1.90;;
7181;SDS011;3632;42.724;23.298;2024-03-23T13:31:02;7.10;;;2.50;;
7181;SDS011;3632;42.724;23.298;2024-03-23T13:33:29;3.33;;;2.83;;
7181;SDS011;3632;42.724;23.298;2024-03-23T13:35:57;5.90;;;2.77;;
7181;SDS011;3632;42.724;23.298;2024-03-23T13:38:30;3.33;;;2.70;;
7181;SDS011;3632;42.724;23.298;2024-03-23T13:40:56;2.40;;;2.10;;
7181;SDS011;3632;42.724;23.298;2024-03-23T13:47:37;3.33;;;1.93;;
7181;SDS011;3632;42.724;23.298;2024-03-23T14:00:46;5.50;;;2.23;;
7181;SDS011;3632;42.724;23.298;2024-03-23T14:07:04;3.17;;;2.60;;
7181;SDS011;3632;42.724;23.298;2024-03-23T14:09:32;2.77;;;2.47;;
7181;SDS011;3632;42.724;23.298;2024-03-23T14:11:59;3.27;;;2.90;;
7181;SDS011;3632;42.724;23.298;2024-03-23T14:14:28;7.07;;;3.00;;
7181;SDS011;3632;42.724;23.298;2024-03-23T14:16:54;5.27;;;3.77;;
7181;SDS011;3632;42.724;23.298;2024-03-23T14:19:20;3.07;;;2.50;;
7181;SDS011;3632;42.724;23.298;2024-03-23T14:21:47;3.17;;;2.77;;
7181;SDS011;3632;42.724;23.298;2024-03-23T14:24:14;3.97;;;3.00;;
7181;SDS011;3632;42.724;23.298;2024-03-23T14:26:41;3.70;;;2.40;;
7181;SDS011;3632;42.724;23.298;2024-03-23T14:29:08;2.87;;;2.40;;
7181;SDS011;3632;42.724;23.298;2024-03-23T14:31:35;3.30;;;2.30;;
7181;SDS011;3632;42.724;23.298;2024-03-23T14:34:01;3.23;;;2.70;;
7181;SDS011;3632;42.724;23.298;2024-03-23T14:36:27;4.77;;;2.63;;
7181;SDS011;3632;42.724;23.298;2024-03-23T14:38:53;2.90;;;2.70;;
7181;SDS011;3632;42.724;23.298;2024-03-23T14:41:21;3.67;;;2.60;;
7181;SDS011;3632;42.724;23.298;2024-03-23T14:43:47;2.90;;;2.43;;
7181;SDS011;3632;42.724;23.298;2024-03-23T14:46:16;3.63;;;2.83;;
7181;SDS011;3632;42.724;23.298;2024-03-23T14:48:43;3.97;;;2.47;;
7181;SDS011;3632;42.724;23.298;2024-03-23T14:51:11;5.50;;;2.20;;
7181;SDS011;3632;42.724;23.298;2024-03-23T14:53:38;7.10;;;3.87;;
7181;SDS011;3632;42.724;23.298;2024-03-23T14:56:07;5.27;;;3.30;;
7181;SDS011;3632;42.724;23.298;2024-03-23T14:58:36;4.37;;;3.33;;
7181;SDS011;3632;42.724;23.298;2024-03-23T15:01:03;3.03;;;2.73;;
7181;SDS011;3632;42.724;23.298;2024-03-23T15:03:31;4.53;;;3.80;;
7181;SDS011;3632;42.724;23.298;2024-03-23T15:05:58;3.67;;;3.20;;
7181;SDS011;3632;42.724;23.298;2024-03-23T15:08:25;4.20;;;3.10;;
7181;SDS011;3632;42.724;23.298;2024-03-23T15:10:52;3.63;;;3.23;;
7181;SDS011;3632;42.724;23.298;2024-03-23T15:13:18;3.33;;;2.67;;
7181;SDS011;3632;42.724;23.298;2024-03-23T15:15:49;3.87;;;3.10;;
7181;SDS011;3632;42.724;23.298;2024-03-23T15:18:16;9.10;;;4.57;;
7181;SDS011;3632;42.724;23.298;2024-03-23T15:20:51;4.70;;;3.10;;
7181;SDS011;3632;42.724;23.298;2024-03-23T15:23:18;4.20;;;2.80;;
7181;SDS011;3632;42.724;23.298;2024-03-23T15:25:44;3.50;;;2.73;;
7181;SDS011;3632;42.724;23.298;2024-03-23T15:28:10;3.50;;;3.00;;
7181;SDS011;3632;42.724;23.298;2024-03-23T15:30:39;4.70;;;2.87;;
7181;SDS011;3632;42.724;23.298;2024-03-23T15:33:06;5.67;;;3.00;;
7181;SDS011;3632;42.724;23.298;2024-03-23T15:35:33;4.70;;;3.07;;
7181;SDS011;3632;42.724;23.298;2024-03-23T15:37:58;4.93;;;3.20;;
7181;SDS011;3632;42.724;23.298;2024-03-23T15:40:30;3.93;;;2.97;;
7181;SDS011;3632;42.724;23.298;2024-03-23T15:42:56;4.00;;;3.60;;
7181;SDS011;3632;42.724;23.298;2024-03-23T15:45:23;5.60;;;4.53;;
7181;SDS011;3632;42.724;23.298;2024-03-23T15:47:48;7.30;;;4.80;;
7181;SDS011;3632;42.724;23.298;2024-03-23T15:50:17;7.33;;;5.37;;
7181;SDS011;3632;42.724;23.298;2024-03-23T15:52:42;6.03;;;3.50;;
7181;SDS011;3632;42.724;23.298;2024-03-23T15:55:09;8.17;;;5.00;;
7181;SDS011;3632;42.724;23.298;2024-03-23T15:57:35;8.03;;;5.93;;
7181;SDS011;3632;42.724;23.298;2024-03-23T16:00:02;9.47;;;7.93;;